Аэропорт
Гонконг (VHHH)

 VHHH / HKG

Hong Kong
HK-U-A
Гонконг
 22.30890, 113.91500  / 28 ft

 VHHH 182300Z 08009KT 9999 VCSH FEW012 SCT022 28/26 Q1011 NOSIG
 TAF VHHH 181700Z 1818/1924 10015KT 9999 FEW015 SCT025 TX31/1906Z TN27/1822Z TN27/1922Z TEMPO 1818/1824 14025G35KT 3000 -TSRA SHRA FEW010CB SCT020 TEMPO 1900/1906 4000 SHRA FEW010CB SCT025

2020 © VATRUS division (Privacy Policy)